createdAt,value
2022-09-03T00:01:19.035Z,27.00
2022-09-03T00:03:57.962Z,16.00
2022-09-03T00:06:33.297Z,28.20
2022-09-03T00:09:25.088Z,28.10
2022-09-03T00:12:11.057Z,16.20
2022-09-03T00:14:44.172Z,28.50
2022-09-03T00:17:16.280Z,27.90
2022-09-03T00:20:00.908Z,29.00
2022-09-03T00:22:33.575Z,28.10
2022-09-03T00:25:04.108Z,16.90
2022-09-03T00:27:36.979Z,28.30
2022-09-03T00:30:14.726Z,29.50
2022-09-03T00:33:06.912Z,16.50
2022-09-03T00:35:42.456Z,28.80
2022-09-03T00:38:09.467Z,28.60
2022-09-03T00:40:51.298Z,29.30
2022-09-03T00:43:33.147Z,17.10
2022-09-03T00:46:19.546Z,29.20
2022-09-03T00:49:30.080Z,25.60
2022-09-03T00:52:17.031Z,17.70
2022-09-03T00:54:54.473Z,29.60
2022-09-03T00:57:56.846Z,29.60
2022-09-03T01:00:23.803Z,30.00
2022-09-03T01:03:09.903Z,29.60
2022-09-03T01:06:13.645Z,29.50
2022-09-03T01:08:53.204Z,30.80
2022-09-03T01:11:59.683Z,30.80
2022-09-03T01:14:43.317Z,29.80
2022-09-03T01:17:51.090Z,30.80
2022-09-03T01:20:35.497Z,30.60
2022-09-03T01:23:24.717Z,30.90
2022-09-03T01:26:03.149Z,30.00
2022-09-03T01:28:57.278Z,30.00
2022-09-03T01:31:29.911Z,30.10
2022-09-03T01:34:08.918Z,31.00
2022-09-03T01:36:55.649Z,29.80
2022-09-03T01:39:51.899Z,30.70
2022-09-03T01:42:41.731Z,31.00
2022-09-03T01:45:31.918Z,30.40
2022-09-03T01:48:30.589Z,30.80
2022-09-03T01:51:17.959Z,30.40
2022-09-03T01:54:20.745Z,31.80
2022-09-03T01:57:34.897Z,30.20
2022-09-03T02:00:15.451Z,32.80
2022-09-03T02:02:48.002Z,31.50
2022-09-03T02:05:25.658Z,32.10
2022-09-03T02:08:02.889Z,31.30
2022-09-03T02:10:52.437Z,31.90
2022-09-03T02:13:26.984Z,31.20
2022-09-03T02:15:57.993Z,32.10
2022-09-03T02:18:30.869Z,33.60
2022-09-03T02:20:58.984Z,31.30
2022-09-03T02:23:28.379Z,32.80
2022-09-03T02:26:01.255Z,31.50
2022-09-03T02:28:32.758Z,32.50
2022-09-03T02:30:59.656Z,33.20
2022-09-03T02:33:26.664Z,33.00
2022-09-03T02:35:54.141Z,33.10
2022-09-03T02:38:25.775Z,33.40
2022-09-03T02:40:55.956Z,33.60
2022-09-03T02:43:30.949Z,32.30
2022-09-03T02:46:03.646Z,27.00
2022-09-03T02:48:30.685Z,32.60
2022-09-03T02:50:57.477Z,21.10
2022-09-03T02:53:24.366Z,32.90
2022-09-03T02:55:51.433Z,34.00
2022-09-03T02:58:18.156Z,34.80
2022-09-03T03:00:45.340Z,33.30
2022-09-03T03:03:12.124Z,34.00
2022-09-03T03:05:51.624Z,35.90
2022-09-03T03:08:21.183Z,33.10
2022-09-03T03:10:49.492Z,33.30
2022-09-03T03:13:16.761Z,34.00
2022-09-03T03:15:44.238Z,35.00
2022-09-03T03:18:14.487Z,34.60
2022-09-03T03:20:42.129Z,34.20
2022-09-03T03:23:09.847Z,33.30
2022-09-03T03:25:39.099Z,33.60
2022-09-03T03:28:07.019Z,34.10
2022-09-03T03:30:34.333Z,35.00
2022-09-03T03:33:01.476Z,34.80
2022-09-03T03:35:28.291Z,35.20
2022-09-03T03:37:57.494Z,22.60
2022-09-03T03:40:24.496Z,33.80
2022-09-03T03:42:51.252Z,33.90
2022-09-03T03:45:18.247Z,21.80
2022-09-03T03:47:45.049Z,35.00
2022-09-03T03:50:11.794Z,33.60
2022-09-03T03:52:38.614Z,34.20
2022-09-03T03:55:06.834Z,33.70
2022-09-03T03:57:33.595Z,34.80
2022-09-03T04:00:00.470Z,36.40
2022-09-03T04:02:27.316Z,22.30
2022-09-03T04:04:54.845Z,35.40
2022-09-03T04:07:21.677Z,35.50
2022-09-03T04:09:49.366Z,34.60
2022-09-03T04:12:17.496Z,34.40
2022-09-03T04:14:44.284Z,35.20
2022-09-03T04:17:11.079Z,37.20
2022-09-03T04:19:38.416Z,36.90
2022-09-03T04:22:05.212Z,23.40
2022-09-03T04:24:32.420Z,22.40
2022-09-03T04:26:59.332Z,37.40
2022-09-03T04:29:26.162Z,37.20
2022-09-03T04:32:11.343Z,36.80
2022-09-03T04:34:38.123Z,36.20
2022-09-03T04:37:04.972Z,35.50
2022-09-03T04:39:31.873Z,35.40
2022-09-03T04:42:00.080Z,37.80
2022-09-03T04:44:26.976Z,37.20
2022-09-03T04:46:53.758Z,36.60
2022-09-03T04:49:20.646Z,24.20
2022-09-03T04:51:47.409Z,36.90
2022-09-03T04:54:14.243Z,36.90
2022-09-03T04:56:40.979Z,36.90
2022-09-03T04:59:09.510Z,37.40
2022-09-03T05:01:38.547Z,38.90
2022-09-03T05:04:08.452Z,37.40
2022-09-03T05:06:36.843Z,25.50
2022-09-03T05:09:04.497Z,37.30
2022-09-03T05:11:31.337Z,23.90
2022-09-03T05:13:59.833Z,23.70
2022-09-03T05:16:28.860Z,38.00
2022-09-03T05:18:57.067Z,23.50
2022-09-03T05:21:24.514Z,24.80
2022-09-03T05:23:52.862Z,39.60
2022-09-03T05:26:23.126Z,38.00
2022-09-03T05:28:57.875Z,25.80
2022-09-03T05:31:26.743Z,38.30
2022-09-03T05:33:58.960Z,25.70
2022-09-03T05:36:34.770Z,26.40
2022-09-03T05:39:02.641Z,38.40
2022-09-03T05:41:29.917Z,39.50
2022-09-03T05:43:59.352Z,39.40
2022-09-03T05:46:34.257Z,40.10
2022-09-03T05:49:03.203Z,38.10
2022-09-03T05:51:30.850Z,26.00
2022-09-03T05:53:58.146Z,39.60
2022-09-03T05:56:26.786Z,39.30
2022-09-03T05:59:05.456Z,25.60
2022-09-03T06:01:34.989Z,40.50
2022-09-03T06:04:04.272Z,25.70
2022-09-03T06:06:34.377Z,25.50
2022-09-03T06:09:04.332Z,38.30
2022-09-03T06:11:33.119Z,25.50
2022-09-03T06:14:01.651Z,39.90
2022-09-03T06:16:31.952Z,39.80
2022-09-03T06:19:00.538Z,25.70
2022-09-03T06:21:27.793Z,38.60
2022-09-03T06:23:58.502Z,25.60
2022-09-03T06:26:29.194Z,25.80
2022-09-03T06:28:56.971Z,25.20
2022-09-03T06:31:24.239Z,24.70
2022-09-03T06:33:51.852Z,38.60
2022-09-03T06:36:19.557Z,24.80
2022-09-03T06:38:47.301Z,25.20
2022-09-03T06:41:21.006Z,39.90
2022-09-03T06:43:49.185Z,25.60
2022-09-03T06:46:18.277Z,25.10
2022-09-03T06:48:46.031Z,39.70
2022-09-03T06:51:17.749Z,24.90
2022-09-03T06:53:47.251Z,23.00
2022-09-03T06:56:19.595Z,25.50
2022-09-03T06:58:48.624Z,39.60
2022-09-03T07:01:19.203Z,25.50
2022-09-03T07:03:48.301Z,39.30
2022-09-03T07:06:17.538Z,25.20
2022-09-03T07:08:46.309Z,39.00
2022-09-03T07:11:19.476Z,24.70
2022-09-03T07:13:48.435Z,25.00
2022-09-03T07:16:18.579Z,24.50
2022-09-03T07:18:46.009Z,24.50
2022-09-03T07:21:15.353Z,23.70
2022-09-03T07:23:43.017Z,37.80
2022-09-03T07:26:15.684Z,36.60
2022-09-03T07:28:43.905Z,23.90
2022-09-03T07:31:14.024Z,23.20
2022-09-03T07:33:44.116Z,22.50
2022-09-03T07:36:14.294Z,22.10
2022-09-03T07:38:43.733Z,22.20
2022-09-03T07:41:12.768Z,21.50
2022-09-03T07:43:48.801Z,22.30
2022-09-03T07:46:23.713Z,31.30
2022-09-03T07:48:55.997Z,21.10
2022-09-03T07:51:26.466Z,20.70
2022-09-03T07:53:56.061Z,20.20
2022-09-03T07:56:23.398Z,20.00
2022-09-03T07:58:50.605Z,30.00
2022-09-03T08:01:19.987Z,18.90
2022-09-03T08:03:49.503Z,19.40
2022-09-03T08:06:18.784Z,18.90
2022-09-03T08:08:45.686Z,18.60
2022-09-03T08:11:14.869Z,18.00
2022-09-03T08:13:44.759Z,17.90
2022-09-03T08:16:13.732Z,29.40
2022-09-03T08:18:40.748Z,17.60
2022-09-03T08:21:10.504Z,18.00
2022-09-03T08:23:38.716Z,16.10
2022-09-03T08:26:07.760Z,18.00
2022-09-03T08:28:36.299Z,17.00
2022-09-03T08:31:11.944Z,16.90
2022-09-03T08:33:43.498Z,15.80
2022-09-03T08:36:16.347Z,15.40
2022-09-03T08:38:46.229Z,15.20
2022-09-03T08:41:19.825Z,16.10
2022-09-03T08:43:58.553Z,16.20
2022-09-03T08:46:52.033Z,28.10
2022-09-03T08:49:48.204Z,14.40
2022-09-03T08:52:34.483Z,14.30
2022-09-03T08:55:34.127Z,14.10
2022-09-03T08:58:19.339Z,14.10
2022-09-03T09:01:04.078Z,13.50
2022-09-03T09:03:35.042Z,13.40
2022-09-03T09:06:11.873Z,13.70
2022-09-03T09:08:44.638Z,12.50
2022-09-03T09:11:31.629Z,12.60
2022-09-03T09:14:07.691Z,13.30
2022-09-03T09:16:51.131Z,13.30
2022-09-03T09:19:50.520Z,13.10
2022-09-03T09:22:51.813Z,12.20
2022-09-03T09:25:24.411Z,11.30
2022-09-03T09:28:03.904Z,11.30
2022-09-03T09:30:32.541Z,10.80
2022-09-03T09:33:00.582Z,10.80
2022-09-03T09:35:27.411Z,10.50
2022-09-03T09:37:57.488Z,10.00
2022-09-03T09:40:35.299Z,10.80
2022-09-03T09:43:10.995Z,9.80
2022-09-03T09:45:40.659Z,9.00
2022-09-03T09:48:34.075Z,9.00
2022-09-03T09:51:06.129Z,8.70
2022-09-03T09:53:32.997Z,8.50
2022-09-03T09:56:00.415Z,7.90
2022-09-03T09:58:30.890Z,7.40
2022-09-03T10:00:59.820Z,7.30
2022-09-03T10:03:29.807Z,6.80
2022-09-03T10:06:34.761Z,7.10
2022-09-03T10:09:13.317Z,6.40
2022-09-03T10:11:45.141Z,5.80
2022-09-03T10:14:26.455Z,5.90
2022-09-03T10:17:13.069Z,5.70
2022-09-03T10:20:27.588Z,5.60
2022-09-03T10:23:04.377Z,5.20
2022-09-03T10:26:07.324Z,5.10
2022-09-03T10:28:41.366Z,4.50
2022-09-03T10:31:41.973Z,4.70
2022-09-03T10:34:20.931Z,3.60
2022-09-03T10:37:02.442Z,3.60
2022-09-03T10:39:58.919Z,3.40
2022-09-03T10:43:00.400Z,3.10
2022-09-03T10:45:39.194Z,3.10
2022-09-03T10:48:28.839Z,2.80
2022-09-03T10:51:16.269Z,2.70
2022-09-03T10:53:53.618Z,2.40
2022-09-03T10:56:40.303Z,2.00
2022-09-03T10:59:28.961Z,1.70
2022-09-03T11:02:26.705Z,2.10
2022-09-03T11:04:54.435Z,1.90
2022-09-03T11:07:25.879Z,1.90
2022-09-03T11:10:03.997Z,2.10
2022-09-03T11:12:43.437Z,1.90
2022-09-03T11:15:14.060Z,2.00
2022-09-03T11:17:47.048Z,2.10
2022-09-03T11:20:22.276Z,2.40
2022-09-03T11:22:54.680Z,2.50
2022-09-03T11:25:26.020Z,10.30
2022-09-03T11:28:18.188Z,2.10
2022-09-03T11:31:06.782Z,2.20
2022-09-03T11:33:40.946Z,2.70
2022-09-03T11:36:08.081Z,2.50
2022-09-03T11:38:37.369Z,2.00
2022-09-03T11:41:26.192Z,2.10
2022-09-03T11:43:54.427Z,2.70
2022-09-03T11:46:21.751Z,2.20
2022-09-03T11:48:57.717Z,1.80
2022-09-03T11:51:30.096Z,1.90
2022-09-03T11:54:05.482Z,2.10
2022-09-03T11:56:34.264Z,1.80
2022-09-03T11:59:16.479Z,1.50
2022-09-03T12:02:05.612Z,1.40
2022-09-03T12:04:45.680Z,1.10
2022-09-03T12:07:40.832Z,1.20
2022-09-03T12:10:43.790Z,1.00
2022-09-03T12:13:31.499Z,1.00
2022-09-03T12:16:15.954Z,1.00
2022-09-03T12:18:43.747Z,1.00
2022-09-03T12:21:11.556Z,1.20
2022-09-03T12:23:49.098Z,1.00
2022-09-03T12:26:24.694Z,1.00
2022-09-03T12:28:57.209Z,1.00
2022-09-03T12:31:29.855Z,1.00
2022-09-03T12:34:09.592Z,1.00
2022-09-03T12:36:45.105Z,1.00
2022-09-03T12:39:14.009Z,1.00
2022-09-03T12:41:54.415Z,1.00
2022-09-03T12:44:50.596Z,1.00
2022-09-03T12:47:37.046Z,1.00
2022-09-03T12:50:11.002Z,1.00
2022-09-03T12:52:52.305Z,1.00
2022-09-03T12:56:01.006Z,1.00
2022-09-03T12:58:37.054Z,1.00
2022-09-03T13:01:03.848Z,1.00
2022-09-03T13:03:40.904Z,1.00
2022-09-03T13:06:13.745Z,1.00
2022-09-03T13:08:52.912Z,1.00
2022-09-03T13:11:22.031Z,1.00
2022-09-03T13:14:01.435Z,1.00
2022-09-03T13:16:46.436Z,1.00
2022-09-03T13:19:16.402Z,1.00
2022-09-03T13:22:11.840Z,1.00
2022-09-03T13:25:12.866Z,1.00
2022-09-03T13:27:51.852Z,1.00
2022-09-03T13:30:23.485Z,1.00
2022-09-03T13:33:08.073Z,1.00
2022-09-03T13:35:40.448Z,1.00
2022-09-03T13:38:32.857Z,1.00
2022-09-03T13:41:11.062Z,1.00
2022-09-03T13:43:45.595Z,1.00
2022-09-03T13:46:31.904Z,1.00
2022-09-03T13:49:35.696Z,1.00
2022-09-03T13:52:08.799Z,1.00
2022-09-03T13:54:49.793Z,1.00
2022-09-03T13:57:38.699Z,1.00
2022-09-03T14:00:13.941Z,1.00
2022-09-03T14:02:54.311Z,1.00
2022-09-03T14:05:27.237Z,1.00
2022-09-03T14:07:57.002Z,1.00
2022-09-03T14:10:59.675Z,1.00
2022-09-03T14:13:39.654Z,1.00
2022-09-03T14:16:08.711Z,1.00
2022-09-03T14:19:06.788Z,1.00
2022-09-03T14:21:47.338Z,1.00
2022-09-03T14:24:31.896Z,1.00
2022-09-03T14:27:02.442Z,1.00
2022-09-03T14:29:32.305Z,1.00
2022-09-03T14:32:19.035Z,1.00
2022-09-03T14:35:00.110Z,1.00
2022-09-03T14:37:54.836Z,1.00
2022-09-03T14:40:34.915Z,1.00
2022-09-03T14:43:10.819Z,1.00
2022-09-03T14:45:43.342Z,1.00
2022-09-03T14:48:36.688Z,1.00
2022-09-03T14:51:19.816Z,1.00
2022-09-03T14:54:13.810Z,1.00
2022-09-03T14:57:02.289Z,1.00
2022-09-03T14:59:52.663Z,1.00
2022-09-03T15:02:34.645Z,1.00
2022-09-03T15:05:32.581Z,1.00
2022-09-03T15:08:05.957Z,1.00
2022-09-03T15:10:56.816Z,1.00
2022-09-03T15:13:42.235Z,1.00
2022-09-03T15:16:36.275Z,1.00
2022-09-03T15:19:18.267Z,1.00
2022-09-03T15:21:53.893Z,1.00
2022-09-03T15:24:23.606Z,1.00
2022-09-03T15:27:06.370Z,1.00
2022-09-03T15:29:45.651Z,1.00
2022-09-03T15:32:52.490Z,1.00
2022-09-03T15:35:38.113Z,1.00
2022-09-03T15:38:10.952Z,1.00
2022-09-03T15:40:46.423Z,1.00
2022-09-03T15:43:32.294Z,1.00
2022-09-03T15:46:14.726Z,1.00
2022-09-03T15:48:59.488Z,1.00
2022-09-03T15:52:03.478Z,1.00
2022-09-03T15:54:56.996Z,1.00
2022-09-03T15:57:36.501Z,1.00
2022-09-03T16:00:13.458Z,1.00
2022-09-03T16:02:44.686Z,1.00
2022-09-03T16:05:23.927Z,1.00
2022-09-03T16:08:33.977Z,1.00
2022-09-03T16:11:16.456Z,1.00
2022-09-03T16:14:21.880Z,1.00
2022-09-03T16:17:09.077Z,1.00
2022-09-03T16:19:47.515Z,1.00
2022-09-03T16:22:27.991Z,1.00
2022-09-03T16:25:13.898Z,1.00
2022-09-03T16:28:15.594Z,1.00
2022-09-03T16:31:02.824Z,1.00
2022-09-03T16:33:46.288Z,1.10
2022-09-03T16:36:27.992Z,1.00
2022-09-03T16:39:03.940Z,1.00
2022-09-03T16:41:47.416Z,1.00
2022-09-03T16:44:32.585Z,1.00
2022-09-03T16:47:15.379Z,1.00
2022-09-03T16:49:46.442Z,1.00
2022-09-03T16:52:38.511Z,1.00
2022-09-03T16:55:23.345Z,1.00
2022-09-03T16:58:22.110Z,1.00
2022-09-03T17:01:06.832Z,1.00
2022-09-03T17:04:12.048Z,1.00
2022-09-03T17:06:50.705Z,1.00
2022-09-03T17:09:43.300Z,1.00
2022-09-03T17:12:35.289Z,1.00
2022-09-03T17:15:20.956Z,1.00
2022-09-03T17:17:57.459Z,1.00
2022-09-03T17:20:50.987Z,1.00
2022-09-03T17:23:39.130Z,1.00
2022-09-03T17:26:39.117Z,1.00
2022-09-03T17:29:41.650Z,1.00
2022-09-03T17:32:27.963Z,1.20
2022-09-03T17:35:00.640Z,1.80
2022-09-03T17:37:38.410Z,1.80
2022-09-03T17:40:23.577Z,2.20
2022-09-03T17:43:35.804Z,2.80
2022-09-03T17:46:23.934Z,3.20
2022-09-03T17:48:55.640Z,3.00
2022-09-03T17:51:30.026Z,3.40
2022-09-03T17:54:16.045Z,3.70
2022-09-03T17:56:51.188Z,11.10
2022-09-03T17:59:45.476Z,4.70
2022-09-03T18:02:14.953Z,5.60
2022-09-03T18:04:51.302Z,6.00
2022-09-03T18:07:24.340Z,6.20
2022-09-03T18:10:12.989Z,6.90
2022-09-03T18:13:03.009Z,7.70
2022-09-03T18:15:48.228Z,8.10
2022-09-03T18:18:28.030Z,8.50
2022-09-03T18:21:24.284Z,17.50
2022-09-03T18:24:37.353Z,9.70
2022-09-03T18:27:41.157Z,9.80
2022-09-03T18:30:32.524Z,10.50
2022-09-03T18:33:17.824Z,10.40
2022-09-03T18:36:04.798Z,10.80
2022-09-03T18:38:53.406Z,11.10
2022-09-03T18:41:51.357Z,11.30
2022-09-03T18:44:48.251Z,11.30
2022-09-03T18:48:05.497Z,11.80
2022-09-03T18:51:07.602Z,12.20
2022-09-03T18:54:21.058Z,12.90
2022-09-03T18:57:10.995Z,21.80
2022-09-03T19:00:28.102Z,12.80
2022-09-03T19:03:44.544Z,13.10
2022-09-03T19:06:51.990Z,23.30
2022-09-03T19:09:59.814Z,13.30
2022-09-03T19:13:31.716Z,13.80
2022-09-03T19:16:35.847Z,14.30
2022-09-03T19:19:47.080Z,14.50
2022-09-03T19:22:57.533Z,14.60
2022-09-03T19:25:44.767Z,25.00
2022-09-03T19:28:42.417Z,25.50
2022-09-03T19:31:49.558Z,25.00
2022-09-03T19:34:43.925Z,15.80
2022-09-03T19:37:59.143Z,15.60
2022-09-03T19:41:16.844Z,16.10
2022-09-03T19:44:17.029Z,16.60
2022-09-03T19:47:19.842Z,26.40
2022-09-03T19:50:32.123Z,17.00
2022-09-03T19:53:25.279Z,26.50
2022-09-03T19:56:16.422Z,17.80
2022-09-03T19:59:32.254Z,28.20
2022-09-03T20:02:18.674Z,17.60
2022-09-03T20:05:10.273Z,17.20
2022-09-03T20:07:56.860Z,17.80
2022-09-03T20:10:25.415Z,17.50
2022-09-03T20:12:55.980Z,28.40
2022-09-03T20:15:29.912Z,28.70
2022-09-03T20:18:20.474Z,28.90
2022-09-03T20:21:21.923Z,18.70
2022-09-03T20:24:06.824Z,18.50
2022-09-03T20:26:58.683Z,28.30
2022-09-03T20:29:45.829Z,29.10
2022-09-03T20:32:36.802Z,28.10
2022-09-03T20:35:22.420Z,19.30
2022-09-03T20:38:10.497Z,30.70
2022-09-03T20:41:09.880Z,19.60
2022-09-03T20:43:36.585Z,21.20
2022-09-03T20:46:12.923Z,19.80
2022-09-03T20:48:57.913Z,19.70
2022-09-03T20:51:34.495Z,31.50
2022-09-03T20:54:13.726Z,20.20
2022-09-03T20:56:51.334Z,31.10
2022-09-03T20:59:44.438Z,20.50
2022-09-03T21:02:18.656Z,32.80
2022-09-03T21:05:11.459Z,21.40
2022-09-03T21:08:05.697Z,33.20
2022-09-03T21:11:00.856Z,21.30
2022-09-03T21:13:42.283Z,21.20
2022-09-03T21:16:36.957Z,21.30
2022-09-03T21:19:26.816Z,32.50
2022-09-03T21:22:02.519Z,21.30
2022-09-03T21:24:42.121Z,22.20
2022-09-03T21:27:14.970Z,21.70
2022-09-03T21:29:58.216Z,23.60
2022-09-03T21:32:52.222Z,21.90
2022-09-03T21:35:26.574Z,22.10
2022-09-03T21:38:06.964Z,22.70
2022-09-03T21:40:37.770Z,35.40
2022-09-03T21:43:15.169Z,22.90
2022-09-03T21:45:52.119Z,23.40
2022-09-03T21:49:01.149Z,23.50
2022-09-03T21:51:35.777Z,23.10
2022-09-03T21:54:10.527Z,36.30
2022-09-03T21:57:04.686Z,23.80
2022-09-03T21:59:57.853Z,23.40
2022-09-03T22:02:27.121Z,36.30
2022-09-03T22:04:55.828Z,36.80
2022-09-03T22:07:53.340Z,36.10
2022-09-03T22:10:37.463Z,23.80
2022-09-03T22:13:31.622Z,23.50
2022-09-03T22:16:26.666Z,38.00
2022-09-03T22:18:54.554Z,24.00
2022-09-03T22:21:36.050Z,25.00
2022-09-03T22:24:24.396Z,38.00
2022-09-03T22:27:15.722Z,24.20
2022-09-03T22:30:08.051Z,24.20
2022-09-03T22:33:01.287Z,38.60
2022-09-03T22:36:09.001Z,24.60
2022-09-03T22:39:05.342Z,24.70
2022-09-03T22:41:53.089Z,24.80
2022-09-03T22:44:37.707Z,39.70
2022-09-03T22:47:22.549Z,25.20
2022-09-03T22:50:09.344Z,25.30
2022-09-03T22:52:44.136Z,40.20
2022-09-03T22:55:26.105Z,25.40
2022-09-03T22:58:24.565Z,39.90
2022-09-03T23:00:58.956Z,40.00
2022-09-03T23:03:33.856Z,40.00
2022-09-03T23:06:07.906Z,27.10
2022-09-03T23:08:54.490Z,26.60
2022-09-03T23:11:25.493Z,41.10
2022-09-03T23:14:03.643Z,41.20
2022-09-03T23:16:53.070Z,41.40
2022-09-03T23:19:41.537Z,28.40
2022-09-03T23:22:17.866Z,41.70
2022-09-03T23:25:06.289Z,27.40
2022-09-03T23:27:55.214Z,27.40
2022-09-03T23:30:22.053Z,42.00
2022-09-03T23:32:54.901Z,42.10
2022-09-03T23:35:25.662Z,40.90
2022-09-03T23:38:26.867Z,42.50
2022-09-03T23:41:03.234Z,42.60
2022-09-03T23:44:01.594Z,28.10
2022-09-03T23:46:37.249Z,27.30
2022-09-03T23:49:20.056Z,27.20
2022-09-03T23:52:10.179Z,28.90
2022-09-03T23:54:47.777Z,27.10
2022-09-03T23:57:26.769Z,27.60
